Time;durP1;ratioP1;P1;durP2;ratioP2;P2;SDS_P1;SDS_P2;PMS_P1;PMS_P2;Temp;Humidity;BMP_temperature;BMP_pressure;BME280_temperature;BME280_humidity;BME280_pressure;Samples;Min_cycle;Max_cycle;Signal;HPM_P1;HPM_P2
2022/11/24 00:01:08;;;;;;;14.53;9.07;;;-1.00;99.90;-1.40;99653.00;;;;4970243;28;110913;-64
2022/11/24 00:03:34;;;;;;;18.13;9.80;;;-0.90;99.90;-1.40;99655.00;;;;4973048;28;87730;-63
2022/11/24 00:06:06;;;;;;;15.63;8.67;;;-1.00;99.90;-1.40;99645.00;;;;4968717;28;111130;-64
2022/11/24 00:08:33;;;;;;;15.80;9.60;;;-0.90;99.90;-1.50;99646.00;;;;4978503;28;88016;-65
2022/11/24 00:11:04;;;;;;;12.43;8.70;;;-0.90;99.90;-1.50;99642.00;;;;4978869;28;87681;-64
2022/11/24 00:13:31;;;;;;;17.80;8.90;;;-0.30;99.90;-1.50;99648.00;;;;4975079;28;101137;-64
2022/11/24 00:16:10;;;;;;;16.60;9.67;;;-1.10;99.90;-1.60;99630.00;;;;4973038;28;105483;-63
2022/11/24 00:18:38;;;;;;;14.90;8.57;;;-1.10;99.90;-1.60;99634.00;;;;4976840;28;87856;-64
2022/11/24 00:21:04;;;;;;;14.63;9.60;;;-1.20;99.90;-1.60;99641.00;;;;4976671;28;88820;-64
2022/11/24 00:23:29;;;;;;;21.43;9.17;;;-1.20;99.90;-1.50;99643.00;;;;4973046;28;87807;-64
2022/11/24 00:26:10;;;;;;;18.63;9.73;;;-1.20;99.90;-1.50;99641.00;;;;4975725;28;89403;-64
2022/11/24 00:28:37;;;;;;;15.63;8.70;;;-1.10;99.90;-1.50;99647.00;;;;4974591;28;88257;-64
2022/11/24 00:31:12;;;;;;;18.03;9.87;;;-1.10;99.90;-1.50;99638.00;;;;4972226;28;87702;-64
2022/11/24 00:33:38;;;;;;;16.00;8.03;;;-1.10;99.90;-1.60;99642.00;;;;4965703;28;87887;-64
2022/11/24 00:36:04;;;;;;;17.50;10.83;;;-1.10;99.90;-1.50;99644.00;;;;4970536;28;117740;-63
2022/11/24 00:38:29;;;;;;;15.67;9.57;;;-1.20;99.90;-1.50;99657.00;;;;4968734;28;111297;-64
2022/11/24 00:40:55;;;;;;;16.70;9.30;;;-0.60;99.90;-1.60;99643.00;;;;4966979;28;112902;-63
2022/11/24 00:43:21;;;;;;;14.60;8.83;;;-1.20;99.90;-1.60;99651.00;;;;4972199;28;108860;-63
2022/11/24 00:45:46;;;;;;;18.30;10.20;;;-1.10;99.90;-1.60;99645.00;;;;4965141;28;118636;-64
2022/11/24 00:48:12;;;;;;;16.50;9.13;;;-1.10;99.90;-1.60;99640.00;;;;4970685;28;118632;-64
2022/11/24 00:50:38;;;;;;;15.57;10.03;;;-1.20;99.90;-1.60;99646.00;;;;4960151;28;87667;-64
2022/11/24 00:53:04;;;;;;;18.37;10.50;;;-1.20;99.90;-1.60;99644.00;;;;4967990;28;87694;-63
2022/11/24 00:55:29;;;;;;;17.93;9.70;;;-1.30;99.90;-1.60;99653.00;;;;4970697;28;118097;-63
2022/11/24 00:57:55;;;;;;;14.10;8.53;;;-1.20;99.90;-1.60;99653.00;;;;4959594;28;117406;-64
2022/11/24 01:00:21;;;;;;;11.23;7.70;;;-1.30;99.90;-1.70;99653.00;;;;4974642;28;110745;-64
2022/11/24 01:02:46;;;;;;;16.03;7.80;;;-1.10;99.90;-1.70;99655.00;;;;4970616;28;109725;-63
2022/11/24 01:05:12;;;;;;;14.57;8.03;;;-1.40;99.90;-1.70;99667.00;;;;4963341;28;117616;-65
2022/11/24 01:07:38;;;;;;;12.97;8.37;;;-1.30;99.90;-1.80;99670.00;;;;4958837;28;116665;-64
2022/11/24 01:10:04;;;;;;;14.10;8.00;;;-1.50;99.90;-1.80;99665.00;;;;4958551;28;109587;-64
2022/11/24 01:12:31;;;;;;;14.33;7.60;;;-1.30;99.90;-1.80;99667.00;;;;4970768;28;99873;-64
2022/11/24 01:14:57;;;;;;;14.07;8.70;;;-1.40;99.90;-1.80;99665.00;;;;4962908;28;88770;-63
2022/11/24 01:17:23;;;;;;;12.63;8.10;;;-1.40;99.90;-1.80;99667.00;;;;4963897;28;93039;-64
2022/11/24 01:19:49;;;;;;;14.80;8.63;;;-1.40;99.90;-1.80;99664.00;;;;4961352;28;110902;-63
2022/11/24 01:22:15;;;;;;;12.60;7.90;;;-1.40;99.90;-1.90;99670.00;;;;4976529;28;87803;-63
2022/11/24 01:24:41;;;;;;;19.03;9.10;;;-1.50;99.90;-1.90;99670.00;;;;4967447;28;116443;-65
2022/11/24 01:27:07;;;;;;;13.27;8.87;;;-1.50;99.90;-1.90;99662.00;;;;4959151;28;116458;-66
2022/11/24 01:29:32;;;;;;;11.53;7.37;;;-1.40;99.90;-1.90;99667.00;;;;4965485;28;109369;-64
2022/11/24 01:31:58;;;;;;;13.97;8.13;;;-1.50;99.90;-1.90;99677.00;;;;4968018;28;109708;-63
2022/11/24 01:34:24;;;;;;;16.13;7.93;;;-1.50;99.90;-1.90;99674.00;;;;4971482;28;89298;-64
2022/11/24 01:36:49;;;;;;;14.00;7.40;;;-1.50;99.90;-1.90;99680.00;;;;4971655;28;119679;-63
2022/11/24 01:39:15;;;;;;;11.03;7.77;;;-1.50;99.90;-1.90;99672.00;;;;4971716;28;112180;-64
2022/11/24 01:41:41;;;;;;;12.87;8.50;;;-1.50;99.90;-1.90;99667.00;;;;4970676;28;108846;-64
2022/11/24 01:44:29;;;;;;;11.70;8.50;;;-1.50;99.90;-1.90;99688.00;;;;4973817;28;88087;-65
2022/11/24 01:47:32;;;;;;;14.43;8.53;;;-1.00;99.90;-1.90;99684.00;;;;4971253;28;87939;-65
2022/11/24 01:50:00;;;;;;;10.37;7.03;;;-1.50;99.90;-1.90;99688.00;;;;4962328;28;87920;-63
2022/11/24 01:52:40;;;;;;;9.50;5.30;;;-1.50;99.90;-1.90;99701.00;;;;4972347;28;93236;-63
2022/11/24 01:55:14;;;;;;;17.60;7.90;;;-1.40;99.90;-1.90;99702.00;;;;4955973;28;98818;-63
2022/11/24 01:57:46;;;;;;;20.50;8.20;;;-1.50;99.90;-1.80;99700.00;;;;4957121;28;102667;-63
2022/11/24 02:00:13;;;;;;;11.17;7.40;;;-1.40;99.90;-1.80;99698.00;;;;4954143;28;91873;-63
2022/11/24 02:02:41;;;;;;;15.43;8.77;;;-1.30;99.90;-1.70;99701.00;;;;4974485;28;88053;-64
2022/11/24 02:05:26;;;;;;;20.33;8.93;;;-1.40;99.90;-1.70;99702.00;;;;4957397;28;96838;-64
2022/11/24 02:07:54;;;;;;;14.33;8.50;;;-1.30;99.90;-1.70;99702.00;;;;4973444;28;88695;-64
2022/11/24 02:10:22;;;;;;;13.07;8.37;;;-1.30;99.90;-1.70;99705.00;;;;4972163;28;87895;-63
2022/11/24 02:12:51;;;;;;;12.77;7.97;;;-0.30;99.90;-1.70;99707.00;;;;4974779;28;88032;-64
2022/11/24 02:15:18;;;;;;;14.43;8.30;;;-1.30;99.90;-1.60;99704.00;;;;4974817;28;88915;-64
2022/11/24 02:17:43;;;;;;;15.63;9.00;;;-1.30;99.90;-1.60;99707.00;;;;4944903;28;88141;-64
2022/11/24 02:20:11;;;;;;;17.47;8.63;;;-1.20;99.90;-1.50;99705.00;;;;4966369;28;89247;-64
2022/11/24 02:23:04;;;;;;;18.03;10.70;;;-0.90;99.90;-1.60;99697.00;;;;4957723;28;87922;-64
2022/11/24 02:25:55;;;;;;;12.83;8.67;;;-1.00;99.90;-1.60;99705.00;;;;4956780;28;109258;-64
2022/11/24 02:28:22;;;;;;;14.47;8.80;;;-1.20;99.90;-1.60;99706.00;;;;4967499;28;93317;-64
2022/11/24 02:30:49;;;;;;;10.87;7.37;;;-1.10;99.90;-1.60;99697.00;;;;4965955;28;102814;-63
2022/11/24 02:33:16;;;;;;;12.20;7.73;;;-1.20;99.90;-1.60;99710.00;;;;4951447;28;87861;-63
2022/11/24 02:35:42;;;;;;;14.00;8.13;;;-1.20;99.90;-1.60;99702.00;;;;4973610;28;117692;-63
2022/11/24 02:38:12;;;;;;;11.07;7.07;;;-0.30;99.90;-1.60;99700.00;;;;4971120;28;117496;-64
2022/11/24 02:40:40;;;;;;;17.57;7.83;;;-1.20;99.90;-1.70;99714.00;;;;4975790;28;88035;-63
2022/11/24 02:43:16;;;;;;;12.70;8.47;;;-1.30;99.90;-1.70;99720.00;;;;4953243;28;99541;-65
2022/11/24 02:45:42;;;;;;;13.27;8.00;;;-1.30;99.90;-1.70;99725.00;;;;4974792;28;97821;-64
2022/11/24 02:48:07;;;;;;;16.97;8.27;;;-1.20;99.90;-1.80;99727.00;;;;4974146;28;116950;-64
2022/11/24 02:50:33;;;;;;;10.90;8.00;;;-1.40;99.90;-1.80;99719.00;;;;4967762;28;110369;-64
2022/11/24 02:52:59;;;;;;;12.63;7.80;;;-1.40;99.90;-1.90;99727.00;;;;4959938;28;108919;-64
2022/11/24 02:55:24;;;;;;;13.07;7.67;;;-1.60;99.90;-1.90;99731.00;;;;4978923;28;117005;-63
2022/11/24 02:57:50;;;;;;;17.20;8.00;;;-1.50;99.90;-1.90;99726.00;;;;4974027;28;118916;-64
2022/11/24 03:00:17;;;;;;;10.83;7.40;;;-1.50;99.90;-2.00;99726.00;;;;4970111;28;110407;-63
2022/11/24 03:02:42;;;;;;;12.20;7.93;;;-1.60;99.90;-1.90;99728.00;;;;4972880;28;99823;-63
2022/11/24 03:05:10;;;;;;;17.37;9.23;;;-1.50;99.90;-2.00;99712.00;;;;4974382;28;118274;-65
2022/11/24 03:07:36;;;;;;;18.00;8.97;;;-1.60;99.90;-2.00;99726.00;;;;4956380;28;87907;-63
2022/11/24 03:10:03;;;;;;;10.83;7.83;;;-1.60;99.90;-2.00;99726.00;;;;4973107;28;110311;-64
2022/11/24 03:12:28;;;;;;;19.07;8.70;;;-1.60;99.90;-2.00;99727.00;;;;4970185;28;100016;-63
2022/11/24 03:14:54;;;;;;;13.33;8.43;;;-1.70;99.90;-2.00;99734.00;;;;4973793;28;118510;-63
2022/11/24 03:17:20;;;;;;;15.60;8.87;;;-1.60;99.90;-2.10;99725.00;;;;4973931;28;90420;-62
2022/11/24 03:19:45;;;;;;;11.50;7.30;;;-1.60;99.90;-2.10;99717.00;;;;4973698;28;109425;-63
2022/11/24 03:22:12;;;;;;;13.47;7.50;;;-1.60;99.90;-2.10;99720.00;;;;4971917;28;109125;-63
2022/11/24 03:24:38;;;;;;;16.77;8.07;;;-1.70;99.90;-2.10;99720.00;;;;4971206;28;89448;-63
2022/11/24 03:27:04;;;;;;;17.93;8.40;;;-1.80;99.90;-2.10;99727.00;;;;4969911;28;117803;-63
2022/11/24 03:29:29;;;;;;;14.00;8.93;;;-1.80;99.90;-2.20;99710.00;;;;4972421;28;111249;-63
2022/11/24 03:31:55;;;;;;;14.37;8.03;;;-1.70;99.90;-2.20;99717.00;;;;4969567;28;109098;-64
2022/11/24 03:34:21;;;;;;;12.57;7.87;;;-1.80;99.90;-2.30;99725.00;;;;4966623;28;117054;-63
2022/11/24 03:36:46;;;;;;;10.60;6.90;;;-1.70;99.90;-2.30;99728.00;;;;4962865;28;117252;-61
2022/11/24 03:39:12;;;;;;;11.97;7.13;;;-1.90;99.90;-2.30;99738.00;;;;4970342;28;108844;-63
2022/11/24 03:41:38;;;;;;;13.20;7.80;;;-1.90;99.90;-2.30;99731.00;;;;4973657;28;107984;-63
2022/11/24 03:44:03;;;;;;;13.83;7.33;;;-1.80;99.90;-2.40;99734.00;;;;4975386;28;101766;-64
2022/11/24 03:46:29;;;;;;;19.07;7.77;;;-1.90;99.90;-2.40;99721.00;;;;4971092;28;117962;-63
2022/11/24 03:48:55;;;;;;;12.90;7.60;;;-1.90;99.90;-2.40;99737.00;;;;4972586;28;108620;-64
2022/11/24 03:51:20;;;;;;;10.67;7.47;;;-1.90;99.90;-2.40;99732.00;;;;4970411;28;108700;-63
2022/11/24 03:53:46;;;;;;;17.30;8.27;;;-2.00;99.90;-2.40;99727.00;;;;4971106;28;117502;-64
2022/11/24 03:56:13;;;;;;;12.60;7.47;;;-2.00;99.90;-2.50;99748.00;;;;4972818;28;118110;-64
2022/11/24 03:58:38;;;;;;;13.67;7.60;;;-2.00;99.90;-2.50;99740.00;;;;4975842;28;101013;-64
2022/11/24 04:01:04;;;;;;;12.47;7.37;;;-2.10;99.90;-2.50;99746.00;;;;4969169;28;108523;-63
2022/11/24 04:03:30;;;;;;;13.40;8.73;;;-2.10;99.90;-2.50;99729.00;;;;4967320;28;118437;-63
2022/11/24 04:05:55;;;;;;;11.57;7.20;;;-2.00;99.90;-2.50;99733.00;;;;4966751;28;118937;-63
2022/11/24 04:08:21;;;;;;;14.03;8.00;;;-2.00;99.90;-2.50;99741.00;;;;4974871;28;110524;-63
2022/11/24 04:10:52;;;;;;;12.20;7.43;;;-2.00;99.90;-2.50;99746.00;;;;4966564;28;109042;-64
2022/11/24 04:13:22;;;;;;;13.70;8.17;;;-2.00;99.90;-2.50;99748.00;;;;4971216;28;94367;-62
2022/11/24 04:15:48;;;;;;;15.30;7.70;;;-2.10;99.90;-2.60;99743.00;;;;4974265;28;87854;-62
2022/11/24 04:18:14;;;;;;;14.97;8.40;;;-2.10;99.90;-2.60;99744.00;;;;4973579;28;88006;-64
2022/11/24 04:20:40;;;;;;;13.83;8.07;;;-2.10;99.90;-2.60;99747.00;;;;4972777;28;87308;-63
2022/11/24 04:23:07;;;;;;;12.63;7.30;;;-2.20;99.90;-2.60;99751.00;;;;4964794;28;88093;-62
2022/11/24 04:25:33;;;;;;;14.07;8.30;;;-2.10;99.90;-2.60;99749.00;;;;4973489;28;91691;-63
2022/11/24 04:27:59;;;;;;;14.17;8.00;;;-2.20;99.90;-2.70;99744.00;;;;4971453;28;88806;-62
2022/11/24 04:30:26;;;;;;;12.77;6.97;;;-2.30;99.90;-2.70;99747.00;;;;4969458;28;108944;-62
2022/11/24 04:32:52;;;;;;;13.07;8.00;;;-2.20;99.90;-2.70;99746.00;;;;4966522;28;93247;-63
2022/11/24 04:35:19;;;;;;;12.57;7.23;;;-2.10;99.90;-2.70;99754.00;;;;4960137;28;106748;-62
2022/11/24 04:37:45;;;;;;;13.07;7.87;;;-2.20;99.90;-2.80;99759.00;;;;4967908;28;87952;-62
2022/11/24 04:40:12;;;;;;;15.07;7.73;;;-2.20;99.90;-2.80;99757.00;;;;4970538;28;87892;-62
2022/11/24 04:42:37;;;;;;;13.20;7.23;;;-2.30;99.90;-2.80;99766.00;;;;4968567;28;88817;-61
2022/11/24 04:45:05;;;;;;;11.80;8.27;;;-2.40;99.90;-2.80;99756.00;;;;4966103;28;116791;-62
2022/11/24 04:47:31;;;;;;;17.20;8.83;;;-2.10;99.90;-2.80;99760.00;;;;4967103;28;87814;-62
2022/11/24 04:49:57;;;;;;;10.77;7.57;;;-2.40;99.90;-2.80;99761.00;;;;4973673;28;87962;-62
2022/11/24 04:52:24;;;;;;;14.17;7.50;;;-2.30;99.90;-2.80;99770.00;;;;4969113;28;118846;-61
2022/11/24 04:54:51;;;;;;;12.50;8.23;;;-2.40;99.90;-2.80;99765.00;;;;4975450;28;108227;-61
2022/11/24 04:57:20;;;;;;;15.97;8.77;;;-2.30;99.90;-2.80;99770.00;;;;4973428;28;103254;-65
2022/11/24 04:59:46;;;;;;;12.97;7.57;;;-2.40;99.90;-2.90;99782.00;;;;4972215;28;102404;-62
2022/11/24 05:02:12;;;;;;;15.47;8.20;;;-2.40;99.90;-2.90;99782.00;;;;4974576;28;117421;-62
2022/11/24 05:04:38;;;;;;;13.13;7.23;;;-2.50;99.90;-2.90;99783.00;;;;4974790;28;90415;-61
2022/11/24 05:07:04;;;;;;;15.10;8.07;;;-2.30;99.90;-2.80;99795.00;;;;4974990;28;92854;-62
2022/11/24 05:09:30;;;;;;;15.80;8.53;;;-2.40;99.90;-2.90;99803.00;;;;4973839;28;88506;-61
2022/11/24 05:11:55;;;;;;;12.00;8.43;;;-2.40;99.90;-2.90;99792.00;;;;4970804;28;110067;-64
2022/11/24 05:14:21;;;;;;;16.50;8.90;;;-2.40;99.90;-2.90;99801.00;;;;4974437;28;88137;-61
2022/11/24 05:16:47;;;;;;;8.47;6.63;;;-2.40;99.90;-2.90;99820.00;;;;4973859;28;110669;-60
2022/11/24 05:19:13;;;;;;;11.97;7.00;;;-2.40;99.90;-2.90;99804.00;;;;4975151;28;88996;-63
2022/11/24 05:21:39;;;;;;;13.03;6.87;;;-1.80;99.90;-2.90;99804.00;;;;4972245;28;88106;-63
2022/11/24 05:24:06;;;;;;;13.63;6.63;;;-2.40;99.90;-2.90;99819.00;;;;4972970;28;117229;-63
2022/11/24 05:26:31;;;;;;;12.53;6.97;;;-2.40;99.90;-2.90;99808.00;;;;4977041;28;101051;-63
2022/11/24 05:28:57;;;;;;;12.83;7.37;;;-2.40;99.90;-2.90;99813.00;;;;4974758;28;106969;-62
2022/11/24 05:31:23;;;;;;;14.43;7.87;;;-2.50;99.90;-2.90;99817.00;;;;4973692;28;88864;-63
2022/11/24 05:33:49;;;;;;;12.53;7.47;;;-2.50;99.90;-2.90;99817.00;;;;4973266;28;117131;-63
2022/11/24 05:38:59;;;;;;;14.37;7.80;;;-2.50;99.90;-2.90;99824.00;;;;4967820;28;88033;-60
2022/11/24 05:41:24;;;;;;;12.70;7.67;;;-2.60;99.90;-2.90;99828.00;;;;4973532;28;89277;-62
2022/11/24 05:43:50;;;;;;;12.00;7.50;;;-1.90;99.90;-2.90;99813.00;;;;4971094;28;89407;-61
2022/11/24 05:46:16;;;;;;;15.63;8.10;;;-2.40;99.90;-2.80;99835.00;;;;4968667;28;109320;-62
2022/11/24 05:48:42;;;;;;;15.03;8.33;;;-2.40;99.90;-2.80;99836.00;;;;4967290;28;108127;-63
2022/11/24 05:51:07;;;;;;;14.53;8.93;;;-2.30;99.90;-2.80;99832.00;;;;4970080;28;108353;-62
2022/11/24 05:53:33;;;;;;;15.70;7.73;;;-2.50;99.90;-2.90;99837.00;;;;4970409;28;118970;-62
2022/11/24 05:56:03;;;;;;;10.30;6.50;;;-2.40;99.90;-2.90;99860.00;;;;4970342;28;110114;-62
2022/11/24 05:58:28;;;;;;;14.43;7.77;;;-2.40;99.90;-2.90;99852.00;;;;4970439;28;103002;-62
2022/11/24 06:00:54;;;;;;;9.97;7.60;;;-2.40;99.90;-2.90;99847.00;;;;4969427;28;117520;-62
2022/11/24 06:03:20;;;;;;;17.07;8.20;;;-2.40;99.90;-2.90;99852.00;;;;4971217;28;117490;-62
2022/11/24 06:05:46;;;;;;;12.43;8.30;;;-2.40;99.90;-2.90;99846.00;;;;4973475;28;92502;-62
2022/11/24 06:08:12;;;;;;;14.10;7.50;;;-2.50;99.90;-3.00;99864.00;;;;4971220;28;109157;-62
2022/11/24 06:10:38;;;;;;;19.20;9.57;;;-2.40;99.90;-3.00;99867.00;;;;4971571;28;107152;-62
2022/11/24 06:13:05;;;;;;;11.20;7.73;;;-2.60;99.90;-3.00;99871.00;;;;4971174;28;118578;-62
2022/11/24 06:15:32;;;;;;;19.03;7.97;;;-1.90;99.90;-3.00;99867.00;;;;4969572;28;104173;-62
2022/11/24 06:17:58;;;;;;;12.77;8.43;;;-2.60;99.90;-3.10;99881.00;;;;4965364;28;90979;-63
2022/11/24 06:20:24;;;;;;;13.67;8.47;;;-2.60;99.90;-3.10;99876.00;;;;4960948;28;118762;-62
2022/11/24 06:22:50;;;;;;;15.00;7.77;;;-2.50;99.90;-3.10;99878.00;;;;4968428;28;88730;-62
2022/11/24 06:25:17;;;;;;;12.67;8.07;;;-2.50;99.90;-3.00;99885.00;;;;4971829;28;110803;-63
2022/11/24 06:27:43;;;;;;;17.23;8.77;;;-2.60;99.90;-3.00;99883.00;;;;4971272;28;87913;-62
2022/11/24 06:30:10;;;;;;;17.90;9.67;;;-2.60;99.90;-3.10;99889.00;;;;4973091;28;118502;-62
2022/11/24 06:32:37;;;;;;;13.57;9.03;;;-2.60;99.90;-3.00;99889.00;;;;4963779;28;89892;-62
2022/11/24 06:35:03;;;;;;;15.23;8.60;;;-2.60;99.90;-3.10;99887.00;;;;4971723;28;87947;-61
2022/11/24 06:37:29;;;;;;;14.13;8.77;;;-2.60;99.90;-3.00;99894.00;;;;4973294;28;99118;-61
2022/11/24 06:39:55;;;;;;;13.97;8.67;;;-2.60;99.90;-3.00;99895.00;;;;4972916;28;107369;-63
2022/11/24 06:42:20;;;;;;;12.57;7.90;;;-2.60;99.90;-3.00;99901.00;;;;4969455;28;119516;-62
2022/11/24 06:44:46;;;;;;;13.17;8.60;;;-2.60;99.90;-3.00;99916.00;;;;4971056;28;87936;-61
2022/11/24 06:47:13;;;;;;;16.30;8.13;;;-2.50;99.90;-3.00;99903.00;;;;4972185;28;87269;-61
2022/11/24 06:49:39;;;;;;;12.57;7.47;;;-2.60;99.90;-3.00;99901.00;;;;4967728;28;88958;-60
2022/11/24 06:52:05;;;;;;;12.10;7.83;;;-2.50;99.90;-2.90;99902.00;;;;4966722;28;107943;-60
2022/11/24 06:54:31;;;;;;;15.37;8.50;;;-2.40;99.90;-2.90;99899.00;;;;4968340;28;111678;-60
2022/11/24 06:56:58;;;;;;;10.37;7.33;;;-2.40;99.90;-2.80;99912.00;;;;4967804;28;108521;-62
2022/11/24 06:59:23;;;;;;;14.63;8.93;;;-2.40;99.90;-2.70;99904.00;;;;4970718;28;108160;-63
2022/11/24 07:01:49;;;;;;;18.73;8.27;;;-2.30;99.90;-2.60;99899.00;;;;4971180;28;103048;-61
2022/11/24 07:04:15;;;;;;;21.93;10.27;;;-2.20;99.90;-2.50;99919.00;;;;4972731;28;110237;-62
2022/11/24 07:06:42;;;;;;;15.63;8.33;;;-2.00;99.90;-2.40;99919.00;;;;4971217;28;87955;-62
2022/11/24 07:09:09;;;;;;;17.70;8.30;;;-2.00;99.90;-2.30;99932.00;;;;4970124;28;88707;-62
2022/11/24 07:11:35;;;;;;;15.87;9.47;;;-1.80;99.90;-2.20;99932.00;;;;4974123;28;87961;-61
2022/11/24 07:14:01;;;;;;;21.13;13.20;;;-1.80;99.90;-2.10;99933.00;;;;4971155;28;87863;-62
2022/11/24 07:16:27;;;;;;;12.93;9.40;;;-1.70;99.90;-2.00;99936.00;;;;4970032;28;87768;-60
2022/11/24 07:18:53;;;;;;;17.83;11.43;;;-1.60;99.90;-1.90;99932.00;;;;4970049;28;111536;-60
2022/11/24 07:21:22;;;;;;;17.23;9.80;;;-1.50;99.90;-1.80;99937.00;;;;4971777;28;102624;-62
2022/11/24 07:23:50;;;;;;;17.93;9.47;;;-1.40;99.90;-1.60;99941.00;;;;4970846;28;87794;-63
2022/11/24 07:26:15;;;;;;;12.97;8.93;;;-1.30;99.90;-1.50;99940.00;;;;4971016;28;96817;-61
2022/11/24 07:28:41;;;;;;;18.57;9.70;;;-1.20;99.90;-1.40;99937.00;;;;4971284;28;116855;-61
2022/11/24 07:31:10;;;;;;;13.20;8.43;;;-1.00;99.90;-1.30;99937.00;;;;4969596;28;116259;-63
2022/11/24 07:33:35;;;;;;;14.10;9.70;;;-1.00;99.90;-1.10;99950.00;;;;4972187;28;87897;-63
2022/11/24 07:36:04;;;;;;;15.97;9.67;;;-0.80;99.90;-0.90;99947.00;;;;4968941;28;109120;-62
2022/11/24 07:38:31;;;;;;;15.73;10.10;;;-0.60;99.90;-0.70;99940.00;;;;4969545;28;89031;-61
2022/11/24 07:41:08;;;;;;;15.77;8.97;;;-0.50;99.90;-0.60;99953.00;;;;4971739;28;88792;-61
2022/11/24 07:43:36;;;;;;;17.73;8.90;;;-0.30;99.90;-0.50;99957.00;;;;4964034;28;106100;-62
2022/11/24 07:46:02;;;;;;;10.93;8.17;;;-0.20;99.90;-0.40;99948.00;;;;4974434;28;102653;-63
2022/11/24 07:48:28;;;;;;;16.77;8.90;;;-0.10;99.90;-0.40;99943.00;;;;4970796;28;87915;-61
2022/11/24 07:50:53;;;;;;;15.30;8.00;;;0.00;99.90;-0.30;99958.00;;;;4970512;28;116989;-62
2022/11/24 07:53:19;;;;;;;12.87;8.30;;;0.00;99.90;-0.20;99950.00;;;;4970087;28;111318;-62
2022/11/24 07:55:59;;;;;;;14.10;8.50;;;0.10;99.90;-0.20;99952.00;;;;4968524;28;106026;-63
2022/11/24 07:58:31;;;;;;;12.77;8.47;;;0.20;99.90;-0.10;99946.00;;;;4973105;28;87953;-63
2022/11/24 08:00:56;;;;;;;9.07;7.17;;;0.20;99.90;-0.10;99945.00;;;;4970731;28;109136;-63
2022/11/24 08:03:24;;;;;;;12.63;7.50;;;0.20;99.90;0.00;99951.00;;;;4970008;28;89103;-63
2022/11/24 08:05:58;;;;;;;13.87;7.70;;;0.40;99.90;0.00;99952.00;;;;4968691;28;87971;-64
2022/11/24 08:08:24;;;;;;;13.70;8.37;;;0.40;99.90;0.10;99961.00;;;;4968656;28;89121;-63
2022/11/24 08:10:51;;;;;;;12.33;7.67;;;0.70;99.90;0.20;99961.00;;;;4972189;28;91852;-63
2022/11/24 08:13:17;;;;;;;15.10;7.63;;;0.40;99.90;0.30;99962.00;;;;4970184;28;87956;-65
2022/11/24 08:15:43;;;;;;;10.40;7.53;;;0.50;99.90;0.30;99968.00;;;;4969377;28;101158;-64
2022/11/24 08:18:09;;;;;;;10.90;6.93;;;0.60;99.90;0.40;99969.00;;;;4967025;28;117156;-64
2022/11/24 08:20:34;;;;;;;9.47;6.90;;;0.80;99.90;0.50;99974.00;;;;4975207;28;87867;-64
2022/11/24 08:23:00;;;;;;;12.87;8.30;;;0.70;99.90;0.50;99967.00;;;;4975475;28;109586;-64
2022/11/24 08:25:31;;;;;;;13.83;9.07;;;0.70;99.90;0.60;99977.00;;;;4972890;28;109026;-64
2022/11/24 08:28:02;;;;;;;12.53;8.63;;;0.80;99.90;0.70;99977.00;;;;4969745;28;88465;-64
2022/11/24 08:30:28;;;;;;;11.97;8.13;;;1.90;99.90;0.70;99968.00;;;;4954109;28;88110;-64
2022/11/24 08:32:54;;;;;;;10.83;7.60;;;1.10;99.90;0.80;99969.00;;;;4966930;28;90147;-64
2022/11/24 08:35:20;;;;;;;14.57;8.00;;;1.10;99.90;0.80;99973.00;;;;4972156;28;87913;-64
2022/11/24 08:37:46;;;;;;;13.77;8.33;;;1.00;99.90;0.80;99973.00;;;;4970512;28;117451;-64
2022/11/24 08:40:12;;;;;;;12.77;8.67;;;1.10;99.90;0.90;99975.00;;;;4971943;28;87854;-64
2022/11/24 08:42:38;;;;;;;12.93;8.77;;;1.20;99.90;1.00;99972.00;;;;4973588;28;102946;-64
2022/11/24 08:45:05;;;;;;;16.10;9.57;;;1.30;99.90;1.00;99978.00;;;;4969346;28;87768;-64
2022/11/24 08:47:30;;;;;;;10.43;7.53;;;1.40;99.90;1.10;99969.00;;;;4972528;28;110822;-64
2022/11/24 08:49:56;;;;;;;11.60;7.50;;;1.30;99.90;1.20;99976.00;;;;4972122;28;99926;-64
2022/11/24 08:52:22;;;;;;;12.30;7.97;;;1.40;99.90;1.30;99972.00;;;;4970284;28;110783;-64
2022/11/24 08:54:48;;;;;;;13.27;7.87;;;1.50;99.90;1.40;99974.00;;;;4973218;28;98228;-64
2022/11/24 08:57:13;;;;;;;9.67;8.03;;;1.70;99.90;1.50;99987.00;;;;4973994;28;90067;-64
2022/11/24 08:59:39;;;;;;;13.07;8.60;;;1.70;99.90;1.60;99981.00;;;;4971291;28;119095;-64
2022/11/24 09:02:10;;;;;;;9.90;7.13;;;1.80;99.90;1.70;99990.00;;;;4973937;28;110534;-64
2022/11/24 09:04:35;;;;;;;10.87;6.67;;;2.00;99.90;1.80;100000.00;;;;4956217;28;101935;-64
2022/11/24 09:07:01;;;;;;;11.03;8.20;;;2.00;99.90;1.90;100003.00;;;;4970273;28;116976;-64
2022/11/24 09:09:27;;;;;;;12.00;7.90;;;2.10;99.90;2.00;100010.00;;;;4973198;28;116604;-65
2022/11/24 09:11:52;;;;;;;9.90;7.27;;;2.20;99.90;2.10;100003.00;;;;4971794;28;109460;-64
2022/11/24 09:14:18;;;;;;;10.20;6.47;;;2.40;99.90;2.20;100012.00;;;;4980002;28;87416;-64
2022/11/24 09:16:44;;;;;;;8.07;5.80;;;2.50;99.90;2.30;100009.00;;;;4976934;28;118121;-64
2022/11/24 09:19:09;;;;;;;9.70;6.27;;;2.50;99.90;2.40;100006.00;;;;4968832;28;117841;-64
2022/11/24 09:21:37;;;;;;;10.20;5.80;;;2.50;99.90;2.40;100013.00;;;;4973191;28;110391;-64
2022/11/24 09:24:06;;;;;;;14.57;6.53;;;2.70;99.90;2.50;100006.00;;;;4976238;28;88348;-64
2022/11/24 09:26:34;;;;;;;9.43;5.43;;;2.70;99.90;2.60;99997.00;;;;4977968;28;88066;-64
2022/11/24 09:29:02;;;;;;;7.80;5.03;;;2.80;99.90;2.60;99997.00;;;;4976304;28;88336;-64
2022/11/24 09:31:35;;;;;;;9.83;5.47;;;2.90;99.90;2.70;99998.00;;;;4973199;28;87659;-64
2022/11/24 09:34:03;;;;;;;6.33;4.90;;;2.90;99.90;2.80;100005.00;;;;4974168;28;88127;-64
2022/11/24 09:36:30;;;;;;;8.37;5.77;;;3.00;99.90;2.80;100004.00;;;;4974266;28;111498;-64
2022/11/24 09:38:56;;;;;;;9.37;6.67;;;3.00;99.90;2.80;100013.00;;;;4965244;28;87238;-64
2022/11/24 09:41:52;;;;;;;7.40;5.73;;;3.10;99.90;2.90;100020.00;;;;4971155;28;110815;-65
2022/11/24 09:45:07;;;;;;;13.37;7.67;;;3.10;99.90;3.00;100025.00;;;;4971762;28;87922;-65
2022/11/24 09:48:00;;;;;;;10.57;6.57;;;3.20;99.90;3.00;100024.00;;;;4955017;28;88844;-64
2022/11/24 09:50:35;;;;;;;17.50;8.57;;;3.40;99.90;3.10;100034.00;;;;4971048;28;88685;-65
2022/11/24 09:53:15;;;;;;;8.90;6.30;;;3.30;99.90;3.20;100021.00;;;;4947786;28;87929;-65
2022/11/24 09:55:49;;;;;;;9.53;7.17;;;3.40;99.90;3.20;100033.00;;;;4953488;28;102047;-65
2022/11/24 09:58:42;;;;;;;12.90;7.60;;;4.40;99.90;3.30;100031.00;;;;4968512;28;87992;-65
2022/11/24 10:01:17;;;;;;;10.73;7.40;;;3.50;99.90;3.30;100037.00;;;;4954506;28;87747;-65
2022/11/24 10:03:47;;;;;;;11.27;7.67;;;3.60;99.90;3.40;100040.00;;;;4968903;28;88225;-65
2022/11/24 10:06:47;;;;;;;12.10;7.97;;;3.70;99.90;3.40;100031.00;;;;4972867;28;87142;-65
2022/11/24 10:09:37;;;;;;;13.90;10.07;;;3.70;99.90;3.50;100029.00;;;;4924774;28;103585;-64
2022/11/24 10:13:07;;;;;;;18.73;11.03;;;3.50;99.90;3.50;100031.00;;;;4972782;28;87838;-64
2022/11/24 10:15:55;;;;;;;17.80;11.53;;;3.80;99.90;3.60;100031.00;;;;4949113;28;89209;-65
2022/11/24 10:18:31;;;;;;;14.00;9.63;;;3.80;99.90;3.60;100041.00;;;;4971698;28;88684;-65
2022/11/24 10:21:43;;;;;;;11.40;9.23;;;3.90;99.90;3.70;100038.00;;;;4973070;28;87995;-65
2022/11/24 10:24:45;;;;;;;16.33;9.47;;;4.00;99.90;3.80;100045.00;;;;4955628;28;109530;-64
2022/11/24 10:27:34;;;;;;;19.73;10.00;;;4.00;99.90;3.80;100047.00;;;;4954563;28;101750;-65
2022/11/24 10:30:00;;;;;;;17.90;8.97;;;4.10;99.90;3.90;100045.00;;;;4954765;28;89502;-64
2022/11/24 10:32:43;;;;;;;15.37;9.30;;;4.10;99.90;4.00;100043.00;;;;4969410;28;94570;-64
2022/11/24 10:35:18;;;;;;;17.57;9.27;;;4.80;99.90;4.10;100048.00;;;;4954950;28;87807;-64
2022/11/24 10:38:19;;;;;;;19.83;12.57;;;4.30;99.90;4.20;100048.00;;;;4958984;28;87838;-64
2022/11/24 10:40:51;;;;;;;13.90;9.60;;;4.40;99.90;4.30;100051.00;;;;4942850;28;87801;-64
2022/11/24 10:43:17;;;;;;;18.03;12.43;;;4.60;99.90;4.30;100041.00;;;;4947040;28;89135;-64
2022/11/24 10:45:42;;;;;;;15.83;10.03;;;4.50;99.90;4.40;100046.00;;;;4968502;28;119767;-64
2022/11/24 10:48:24;;;;;;;15.30;10.07;;;4.60;99.90;4.40;100037.00;;;;4967999;28;111961;-65
2022/11/24 10:50:53;;;;;;;13.13;8.50;;;4.60;99.90;4.50;100042.00;;;;4954825;28;87965;-64
2022/11/24 10:53:29;;;;;;;15.93;9.20;;;4.70;99.90;4.50;100039.00;;;;4954009;28;88784;-64
2022/11/24 10:55:57;;;;;;;13.47;8.47;;;4.70;99.90;4.60;100045.00;;;;4959120;28;87977;-64
2022/11/24 10:58:37;;;;;;;15.33;9.73;;;4.80;99.90;4.60;100049.00;;;;4968103;28;87997;-64